Time;durP1;ratioP1;P1;durP2;ratioP2;P2;SDS_P1;SDS_P2;PMS_P1;PMS_P2;Temp;Humidity;BMP_temperature;BMP_pressure;BME280_temperature;BME280_humidity;BME280_pressure;Samples;Min_cycle;Max_cycle;Signal;HPM_P1;HPM_P2
2021/10/11 00:01:05;;;;;;;11.70;2.20;;;11.90;99.90;;;;;;5026821;28;20124;-66
2021/10/11 00:03:30;;;;;;;9.30;1.73;;;11.90;99.90;;;;;;5024008;28;20038;-66
2021/10/11 00:05:56;;;;;;;13.00;1.95;;;11.90;99.90;;;;;;5022374;28;20045;-66
2021/10/11 00:08:21;;;;;;;15.85;2.17;;;11.80;99.90;;;;;;5020309;28;20397;-66
2021/10/11 00:10:51;;;;;;;13.48;1.70;;;11.80;99.90;;;;;;5022864;28;20037;-66
2021/10/11 00:13:18;;;;;;;9.60;2.42;;;11.80;99.90;;;;;;5024889;28;20043;-66
2021/10/11 00:15:44;;;;;;;11.60;2.10;;;11.70;99.90;;;;;;5020010;28;20049;-66
2021/10/11 00:18:09;;;;;;;5.53;1.40;;;11.70;99.90;;;;;;5026391;28;20037;-66
2021/10/11 00:20:35;;;;;;;10.38;1.85;;;11.70;99.90;;;;;;5020621;28;20106;-66
2021/10/11 00:23:01;;;;;;;13.25;3.17;;;11.70;99.90;;;;;;5021843;28;20128;-66
2021/10/11 00:25:27;;;;;;;9.02;2.00;;;11.60;99.90;;;;;;5022974;28;20033;-68
2021/10/11 00:27:52;;;;;;;8.05;1.92;;;11.60;99.90;;;;;;5019688;28;20068;-66
2021/10/11 00:30:21;;;;;;;9.73;1.60;;;11.50;99.90;;;;;;5025646;28;20037;-66
2021/10/11 00:32:47;;;;;;;7.40;1.60;;;11.50;99.90;;;;;;5022796;28;20048;-66
2021/10/11 00:35:13;;;;;;;8.82;1.67;;;11.40;99.90;;;;;;5039951;28;20041;-66
2021/10/11 00:37:39;;;;;;;9.70;2.85;;;11.40;99.90;;;;;;5020367;28;20176;-66
2021/10/11 00:40:06;;;;;;;8.60;2.10;;;11.40;99.90;;;;;;5021097;28;20045;-67
2021/10/11 00:42:32;;;;;;;10.98;1.98;;;11.40;99.90;;;;;;5021914;28;20084;-66
2021/10/11 00:44:58;;;;;;;8.45;1.70;;;11.40;99.90;;;;;;5018392;28;20131;-66
2021/10/11 00:47:24;;;;;;;11.98;1.75;;;11.40;99.90;;;;;;5021067;28;20136;-66
2021/10/11 00:49:50;;;;;;;10.40;1.55;;;11.40;99.90;;;;;;5019912;28;20053;-66
2021/10/11 00:52:16;;;;;;;10.38;1.65;;;11.40;99.90;;;;;;5022770;28;20042;-66
2021/10/11 00:54:42;;;;;;;8.27;1.73;;;11.40;99.90;;;;;;5020823;28;20048;-66
2021/10/11 00:57:08;;;;;;;16.35;1.77;;;11.40;99.90;;;;;;5020924;28;20507;-66
2021/10/11 00:59:33;;;;;;;11.27;2.92;;;11.40;99.90;;;;;;5021805;28;20060;-66
2021/10/11 01:01:59;;;;;;;10.80;2.15;;;11.30;99.90;;;;;;5020624;28;20041;-66
2021/10/11 01:04:25;;;;;;;10.63;1.73;;;11.30;99.90;;;;;;5022484;28;20048;-66
2021/10/11 01:06:50;;;;;;;7.43;1.70;;;11.30;99.90;;;;;;5020687;28;20124;-66
2021/10/11 01:09:16;;;;;;;12.30;2.28;;;11.20;99.90;;;;;;5020401;28;20143;-66
2021/10/11 01:11:42;;;;;;;8.90;1.50;;;11.20;99.90;;;;;;5021583;28;20133;-66
2021/10/11 01:14:08;;;;;;;10.65;1.73;;;11.20;99.90;;;;;;5018076;28;20053;-66
2021/10/11 01:16:34;;;;;;;10.70;1.88;;;11.20;99.90;;;;;;5022007;28;20037;-66
2021/10/11 01:19:00;;;;;;;13.20;2.28;;;11.20;99.90;;;;;;5036501;28;20045;-66
2021/10/11 01:21:26;;;;;;;10.38;1.83;;;11.20;99.90;;;;;;5019788;28;20775;-66
2021/10/11 01:23:53;;;;;;;8.23;1.45;;;11.20;99.90;;;;;;5021154;28;20033;-66
2021/10/11 01:26:20;;;;;;;11.50;1.83;;;11.20;99.90;;;;;;5018184;28;20042;-66
2021/10/11 01:28:45;;;;;;;8.80;1.88;;;11.20;99.90;;;;;;5017953;28;20799;-66
2021/10/11 01:31:11;;;;;;;8.65;2.08;;;11.20;99.90;;;;;;5021286;28;20038;-66
2021/10/11 01:33:37;;;;;;;9.95;1.83;;;11.20;99.90;;;;;;5003400;28;20099;-66
2021/10/11 01:36:02;;;;;;;7.05;1.70;;;11.10;99.90;;;;;;5020943;28;20082;-66
2021/10/11 01:38:28;;;;;;;10.10;1.85;;;11.10;99.90;;;;;;5022924;28;20041;-66
2021/10/11 01:40:54;;;;;;;11.52;2.63;;;11.00;99.90;;;;;;5020910;28;20047;-66
2021/10/11 01:43:20;;;;;;;8.57;1.92;;;11.00;99.90;;;;;;5021317;28;20053;-66
2021/10/11 01:45:50;;;;;;;13.60;2.28;;;11.00;99.90;;;;;;5019723;28;20079;-66
2021/10/11 01:48:15;;;;;;;12.00;2.30;;;11.00;99.90;;;;;;5022459;28;20041;-66
2021/10/11 01:50:41;;;;;;;7.50;1.58;;;11.00;99.90;;;;;;5024077;28;20492;-66
2021/10/11 01:53:06;;;;;;;11.48;1.48;;;10.90;99.90;;;;;;5026652;28;20619;-66
2021/10/11 01:55:32;;;;;;;10.10;2.45;;;11.00;99.90;;;;;;5026920;28;20041;-66
2021/10/11 01:57:58;;;;;;;9.77;2.03;;;10.90;99.90;;;;;;5025857;28;20076;-66
2021/10/11 02:00:23;;;;;;;14.55;3.90;;;10.90;99.90;;;;;;5024888;28;20376;-66
2021/10/11 02:02:49;;;;;;;18.10;2.10;;;10.90;99.90;;;;;;5027650;28;20048;-66
2021/10/11 02:05:15;;;;;;;14.50;2.13;;;10.90;99.90;;;;;;5028062;28;20044;-66
2021/10/11 02:07:40;;;;;;;9.40;1.52;;;10.90;99.90;;;;;;5027356;28;20052;-66
2021/10/11 02:10:07;;;;;;;11.68;2.05;;;10.90;99.90;;;;;;5040832;28;20055;-66
2021/10/11 02:12:33;;;;;;;9.40;2.00;;;10.90;99.90;;;;;;5028414;28;20084;-66
2021/10/11 02:15:01;;;;;;;11.40;2.28;;;10.80;99.90;;;;;;5028809;28;20040;-66
2021/10/11 02:17:27;;;;;;;6.97;1.58;;;10.80;99.90;;;;;;5025823;28;20041;-66
2021/10/11 02:19:53;;;;;;;12.05;1.88;;;10.80;99.90;;;;;;5025546;28;20203;-66
2021/10/11 02:22:19;;;;;;;10.45;2.20;;;10.70;99.90;;;;;;5024519;28;20150;-66
2021/10/11 02:24:44;;;;;;;7.18;1.48;;;10.70;99.90;;;;;;5025671;28;20049;-66
2021/10/11 02:27:11;;;;;;;10.93;2.20;;;10.70;99.90;;;;;;5027950;28;20488;-66
2021/10/11 02:29:37;;;;;;;11.70;1.75;;;10.70;99.90;;;;;;5027078;28;20041;-66
2021/10/11 02:32:04;;;;;;;15.05;2.45;;;10.60;99.90;;;;;;5026104;28;20461;-66
2021/10/11 02:34:29;;;;;;;10.10;1.83;;;10.60;99.90;;;;;;5024713;28;20376;-66
2021/10/11 02:36:55;;;;;;;8.05;1.60;;;10.50;99.90;;;;;;5028002;28;20057;-66
2021/10/11 02:39:21;;;;;;;9.57;1.98;;;10.40;99.90;;;;;;5023966;28;20392;-66
2021/10/11 02:41:46;;;;;;;11.88;1.98;;;10.50;99.90;;;;;;5030741;28;20045;-67
2021/10/11 02:44:12;;;;;;;10.43;1.83;;;10.40;99.90;;;;;;5025788;28;20051;-66
2021/10/11 02:46:37;;;;;;;6.20;1.25;;;10.30;99.90;;;;;;5046231;28;20073;-66
2021/10/11 02:49:03;;;;;;;11.25;2.28;;;10.30;99.90;;;;;;5029307;28;20116;-66
2021/10/11 02:51:29;;;;;;;10.30;2.35;;;10.30;99.90;;;;;;5025691;28;20045;-66
2021/10/11 02:53:54;;;;;;;11.40;1.88;;;10.20;99.90;;;;;;5032008;28;20045;-66
2021/10/11 02:56:20;;;;;;;10.68;1.83;;;10.20;99.90;;;;;;5028275;28;20037;-66
2021/10/11 02:58:47;;;;;;;10.63;1.88;;;10.10;99.90;;;;;;5032164;28;20036;-66
2021/10/11 03:01:14;;;;;;;8.52;1.50;;;10.10;99.90;;;;;;5030424;28;20025;-66
2021/10/11 03:03:40;;;;;;;9.50;1.70;;;10.10;99.90;;;;;;5033307;28;20045;-66
2021/10/11 03:06:06;;;;;;;6.93;1.25;;;10.00;99.90;;;;;;5030741;28;20593;-66
2021/10/11 03:08:33;;;;;;;7.78;1.60;;;10.00;99.90;;;;;;5032543;28;20069;-66
2021/10/11 03:10:59;;;;;;;9.20;1.30;;;10.00;99.90;;;;;;5032678;28;20399;-65
2021/10/11 03:13:25;;;;;;;8.15;0.95;;;10.00;99.90;;;;;;5035401;28;20070;-66
2021/10/11 03:15:51;;;;;;;9.90;1.35;;;10.00;99.90;;;;;;5012901;28;20049;-66
2021/10/11 03:18:16;;;;;;;10.52;1.92;;;10.00;99.90;;;;;;5030013;28;20048;-66
2021/10/11 03:20:42;;;;;;;14.85;1.83;;;9.90;99.90;;;;;;5031359;28;20483;-66
2021/10/11 03:23:08;;;;;;;11.60;1.92;;;9.90;99.90;;;;;;5028318;28;20037;-66
2021/10/11 03:25:33;;;;;;;16.23;2.38;;;10.00;99.90;;;;;;5032194;28;20116;-66
2021/10/11 03:27:59;;;;;;;10.55;1.50;;;10.00;99.90;;;;;;5030516;28;20040;-66
2021/10/11 03:30:24;;;;;;;8.43;2.47;;;10.00;99.90;;;;;;5043777;28;20045;-66
2021/10/11 03:32:50;;;;;;;12.93;1.90;;;10.00;99.90;;;;;;5032487;28;20045;-66
2021/10/11 03:35:16;;;;;;;12.18;1.58;;;10.00;99.90;;;;;;5048914;28;20046;-66
2021/10/11 03:37:41;;;;;;;12.88;1.50;;;10.10;99.90;;;;;;5047495;28;20045;-66
2021/10/11 03:40:08;;;;;;;11.73;2.40;;;10.00;99.90;;;;;;5033048;28;20044;-66
2021/10/11 03:42:33;;;;;;;16.15;1.85;;;10.00;99.90;;;;;;5029619;28;20073;-66
2021/10/11 03:44:59;;;;;;;8.43;1.15;;;10.10;99.90;;;;;;5028272;28;20076;-66
2021/10/11 03:47:24;;;;;;;11.20;1.35;;;10.10;99.90;;;;;;5028774;28;20468;-66
2021/10/11 03:49:50;;;;;;;10.27;1.40;;;10.10;99.90;;;;;;5045394;28;20380;-66
2021/10/11 03:52:16;;;;;;;18.48;3.38;;;10.10;99.90;;;;;;5028594;28;20029;-66
2021/10/11 03:54:41;;;;;;;12.45;2.28;;;10.20;99.90;;;;;;5029367;28;20045;-66
2021/10/11 03:57:07;;;;;;;9.85;1.75;;;10.10;99.90;;;;;;5030210;28;20065;-66
2021/10/11 03:59:33;;;;;;;16.95;1.85;;;10.20;99.90;;;;;;5026973;28;20073;-66
2021/10/11 04:01:58;;;;;;;11.02;1.25;;;10.20;99.90;;;;;;5025774;28;20444;-66
2021/10/11 04:04:24;;;;;;;13.68;1.60;;;10.20;99.90;;;;;;5027115;28;20811;-66
2021/10/11 04:06:52;;;;;;;11.30;1.60;;;10.20;99.90;;;;;;5025908;28;20052;-66
2021/10/11 04:09:17;;;;;;;9.65;1.70;;;10.20;99.90;;;;;;5025296;28;20836;-66
2021/10/11 04:11:43;;;;;;;14.40;2.05;;;10.20;99.90;;;;;;5026155;28;20045;-66
2021/10/11 04:14:09;;;;;;;8.88;1.50;;;10.20;99.90;;;;;;5024209;28;20045;-66
2021/10/11 04:16:34;;;;;;;11.43;1.52;;;10.20;99.90;;;;;;5025719;28;20478;-66
2021/10/11 04:19:01;;;;;;;15.48;1.30;;;10.20;99.90;;;;;;5026508;28;20033;-66
2021/10/11 04:21:27;;;;;;;17.75;1.92;;;10.20;99.90;;;;;;5025713;28;20458;-66
2021/10/11 04:23:52;;;;;;;9.73;1.38;;;10.10;99.90;;;;;;5028431;28;20029;-66
2021/10/11 04:26:18;;;;;;;11.65;1.83;;;10.10;99.90;;;;;;5027606;28;20083;-66
2021/10/11 04:28:43;;;;;;;10.68;1.48;;;10.10;99.90;;;;;;5022656;28;20369;-66
2021/10/11 04:31:09;;;;;;;14.23;2.03;;;10.10;99.90;;;;;;5026368;28;20087;-66
2021/10/11 04:33:35;;;;;;;8.05;1.33;;;10.10;99.90;;;;;;5027189;28;20045;-66
2021/10/11 04:36:00;;;;;;;9.77;1.38;;;10.10;99.90;;;;;;5027331;28;20144;-66
2021/10/11 04:38:26;;;;;;;7.35;1.48;;;10.10;99.90;;;;;;5026040;28;20488;-66
2021/10/11 04:40:52;;;;;;;9.73;1.48;;;10.10;99.90;;;;;;5027080;28;20476;-66
2021/10/11 04:43:18;;;;;;;11.60;1.73;;;10.10;99.90;;;;;;5025034;28;20037;-66
2021/10/11 04:45:43;;;;;;;11.45;1.80;;;10.10;99.90;;;;;;5023993;28;20045;-66
2021/10/11 04:48:10;;;;;;;11.52;1.70;;;10.10;99.90;;;;;;5030626;28;20593;-66
2021/10/11 04:50:36;;;;;;;13.93;1.67;;;10.10;99.90;;;;;;5025894;28;20061;-66
2021/10/11 04:53:04;;;;;;;10.85;1.92;;;10.10;99.90;;;;;;5024689;28;20068;-66
2021/10/11 04:55:30;;;;;;;10.80;1.55;;;10.10;99.90;;;;;;5027937;28;20049;-66
2021/10/11 04:57:58;;;;;;;17.42;2.22;;;10.10;99.90;;;;;;5021658;28;20049;-66
2021/10/11 05:00:23;;;;;;;11.45;1.80;;;10.10;99.90;;;;;;5023494;28;20041;-66
2021/10/11 05:02:49;;;;;;;10.60;1.70;;;10.00;99.90;;;;;;5025621;28;20550;-66
2021/10/11 05:05:15;;;;;;;13.25;1.90;;;10.10;99.90;;;;;;5025864;28;20044;-66
2021/10/11 05:07:41;;;;;;;8.43;2.17;;;10.10;99.90;;;;;;5024716;28;20059;-66
2021/10/11 05:10:07;;;;;;;12.88;2.45;;;10.10;99.90;;;;;;5024997;28;20097;-66
2021/10/11 05:12:34;;;;;;;10.13;1.83;;;10.00;99.90;;;;;;5024530;28;20060;-66
2021/10/11 05:15:00;;;;;;;14.38;2.50;;;10.00;99.90;;;;;;5022443;28;20079;-65
2021/10/11 05:17:26;;;;;;;9.05;2.70;;;10.00;99.90;;;;;;5026251;28;20052;-66
2021/10/11 05:19:52;;;;;;;16.05;2.33;;;10.00;99.90;;;;;;5022671;28;20037;-67
2021/10/11 05:22:17;;;;;;;15.35;2.05;;;10.00;99.90;;;;;;5022516;28;21523;-66
2021/10/11 05:24:44;;;;;;;9.95;1.50;;;10.00;99.90;;;;;;5018733;28;20123;-66
2021/10/11 05:27:10;;;;;;;11.15;1.88;;;10.00;99.90;;;;;;5038454;28;20120;-66
2021/10/11 05:29:37;;;;;;;11.80;2.65;;;10.00;99.90;;;;;;5020563;28;20514;-66
2021/10/11 05:32:05;;;;;;;11.50;1.95;;;10.00;99.90;;;;;;5022282;28;20049;-66
2021/10/11 05:34:30;;;;;;;15.25;2.20;;;10.00;99.90;;;;;;5021954;28;20037;-66
2021/10/11 05:36:56;;;;;;;12.45;1.58;;;10.00;99.90;;;;;;5020480;28;20108;-66
2021/10/11 05:39:22;;;;;;;13.45;1.58;;;10.00;99.90;;;;;;5020896;28;20388;-66
2021/10/11 05:41:47;;;;;;;9.70;2.00;;;10.00;99.90;;;;;;5017068;28;20136;-66
2021/10/11 05:44:13;;;;;;;15.20;2.10;;;10.00;99.90;;;;;;5022514;28;20041;-66
2021/10/11 05:46:38;;;;;;;11.70;1.60;;;10.00;99.90;;;;;;5016887;28;20069;-66
2021/10/11 05:49:04;;;;;;;9.15;1.50;;;10.00;99.90;;;;;;5019369;28;20381;-66
2021/10/11 05:51:30;;;;;;;16.55;2.00;;;10.00;99.90;;;;;;5021761;28;20042;-66
2021/10/11 05:53:55;;;;;;;14.02;2.20;;;9.90;99.90;;;;;;5017420;28;20527;-66
2021/10/11 05:56:21;;;;;;;10.98;1.92;;;10.00;99.90;;;;;;5022369;28;20037;-66
2021/10/11 05:58:47;;;;;;;17.10;2.00;;;9.90;99.90;;;;;;5021709;28;20389;-66
2021/10/11 06:01:13;;;;;;;13.35;2.25;;;10.00;99.90;;;;;;5021091;28;20037;-66
2021/10/11 06:03:38;;;;;;;13.52;2.30;;;9.90;99.90;;;;;;5019689;28;20492;-66
2021/10/11 06:06:04;;;;;;;10.27;1.67;;;9.80;99.90;;;;;;5020088;28;20468;-66
2021/10/11 06:08:30;;;;;;;8.93;1.85;;;9.80;99.90;;;;;;5038208;28;20041;-67
2021/10/11 06:10:55;;;;;;;17.77;2.33;;;9.80;99.90;;;;;;5018988;28;20041;-66
2021/10/11 06:13:24;;;;;;;9.18;1.85;;;9.80;99.90;;;;;;5015846;28;20069;-66
2021/10/11 06:15:49;;;;;;;8.38;1.55;;;9.80;99.90;;;;;;5014154;28;20030;-66
2021/10/11 06:18:15;;;;;;;12.07;1.67;;;9.80;99.90;;;;;;5014423;28;20452;-66
2021/10/11 06:20:41;;;;;;;14.02;2.10;;;9.80;99.90;;;;;;5018199;28;20082;-66
2021/10/11 06:23:07;;;;;;;15.65;2.05;;;9.70;99.90;;;;;;5016161;28;20207;-66
2021/10/11 06:25:33;;;;;;;10.63;2.20;;;9.80;99.90;;;;;;5036905;28;20412;-67
2021/10/11 06:27:58;;;;;;;10.20;2.58;;;9.70;99.90;;;;;;5016281;28;20065;-66
2021/10/11 06:30:24;;;;;;;11.02;1.75;;;9.80;99.90;;;;;;5018902;28;20042;-66
2021/10/11 06:32:50;;;;;;;6.97;1.30;;;9.80;99.90;;;;;;5019154;28;20045;-66
2021/10/11 06:35:15;;;;;;;12.88;1.67;;;9.80;99.90;;;;;;5018001;28;20379;-66
2021/10/11 06:37:41;;;;;;;17.70;1.88;;;9.80;99.90;;;;;;5018046;28;20424;-66
2021/10/11 06:40:07;;;;;;;12.65;1.85;;;9.90;99.90;;;;;;5016366;28;20034;-66
2021/10/11 06:42:33;;;;;;;12.35;2.20;;;10.00;99.90;;;;;;5016816;28;20034;-66
2021/10/11 06:44:59;;;;;;;16.60;1.95;;;10.00;99.90;;;;;;5014455;28;20046;-67
2021/10/11 06:47:25;;;;;;;11.23;2.13;;;10.00;99.90;;;;;;5019304;28;20034;-66
2021/10/11 06:49:50;;;;;;;18.55;2.58;;;10.10;99.90;;;;;;5015453;28;20124;-66
2021/10/11 06:52:17;;;;;;;15.23;2.55;;;10.20;99.90;;;;;;5017243;28;20044;-66
2021/10/11 06:54:43;;;;;;;12.60;1.92;;;10.20;99.90;;;;;;5019312;28;20361;-66
2021/10/11 06:57:08;;;;;;;14.90;2.30;;;10.30;99.90;;;;;;5016469;28;20072;-66
2021/10/11 06:59:38;;;;;;;14.52;2.13;;;10.40;99.90;;;;;;5015270;28;20124;-66
2021/10/11 07:02:04;;;;;;;15.68;1.77;;;10.50;99.90;;;;;;5016453;28;20050;-66
2021/10/11 07:04:30;;;;;;;10.27;1.65;;;10.50;99.90;;;;;;5020501;28;20037;-66
2021/10/11 07:06:55;;;;;;;7.60;1.42;;;10.60;99.90;;;;;;5017835;28;20045;-66
2021/10/11 07:09:21;;;;;;;11.00;2.05;;;10.60;99.90;;;;;;5020194;28;20045;-66
2021/10/11 07:11:50;;;;;;;11.77;1.55;;;10.60;99.90;;;;;;5020372;28;20045;-66
2021/10/11 07:14:19;;;;;;;14.57;2.83;;;10.60;99.90;;;;;;5034634;28;20049;-67
2021/10/11 07:16:46;;;;;;;14.85;2.08;;;10.70;99.90;;;;;;5017047;28;20796;-66
2021/10/11 07:19:14;;;;;;;12.20;1.63;;;10.70;99.90;;;;;;5017621;28;20123;-66
2021/10/11 07:21:41;;;;;;;18.55;3.25;;;10.70;99.90;;;;;;5015886;28;20073;-66
2021/10/11 07:24:06;;;;;;;16.42;2.08;;;10.70;99.90;;;;;;5035157;28;20050;-66
2021/10/11 07:26:32;;;;;;;11.65;2.28;;;10.80;99.90;;;;;;5017497;28;20041;-66
2021/10/11 07:28:58;;;;;;;10.70;2.33;;;10.80;99.90;;;;;;5020041;28;20077;-66
2021/10/11 07:31:24;;;;;;;9.68;1.75;;;10.80;99.90;;;;;;5019071;28;20043;-67
2021/10/11 07:33:50;;;;;;;12.02;2.58;;;10.90;99.90;;;;;;5018680;28;20045;-66
2021/10/11 07:36:16;;;;;;;12.98;2.35;;;10.90;99.90;;;;;;5023455;28;20049;-66
2021/10/11 07:38:41;;;;;;;9.65;2.08;;;11.00;99.90;;;;;;5019775;28;20088;-66
2021/10/11 07:41:07;;;;;;;16.58;2.30;;;11.00;99.90;;;;;;5019554;28;20137;-66
2021/10/11 07:43:34;;;;;;;14.57;2.42;;;11.10;99.90;;;;;;5019782;28;20045;-66
2021/10/11 07:46:04;;;;;;;10.45;1.98;;;11.30;99.90;;;;;;5019224;28;20626;-66
2021/10/11 07:48:30;;;;;;;11.77;1.55;;;11.30;99.90;;;;;;5021838;28;20069;-66
2021/10/11 07:50:57;;;;;;;18.88;1.80;;;11.30;99.90;;;;;;5020391;28;20103;-66
2021/10/11 07:53:22;;;;;;;9.32;1.60;;;11.40;99.90;;;;;;5019587;28;20403;-67
2021/10/11 07:55:48;;;;;;;10.75;1.40;;;11.50;99.90;;;;;;5019461;28;20045;-66
2021/10/11 07:58:14;;;;;;;10.13;1.60;;;11.50;99.90;;;;;;5022263;28;20037;-66
2021/10/11 08:00:40;;;;;;;8.73;1.48;;;11.50;99.90;;;;;;5020454;28;20041;-66
2021/10/11 08:03:06;;;;;;;17.85;2.50;;;11.60;99.90;;;;;;5021609;28;20052;-66
2021/10/11 08:05:31;;;;;;;15.95;1.90;;;11.70;99.90;;;;;;5006108;28;20033;-66
2021/10/11 08:07:57;;;;;;;16.63;2.42;;;11.70;99.90;;;;;;5020851;28;20038;-66
2021/10/11 08:10:22;;;;;;;20.35;3.13;;;11.70;99.90;;;;;;5020684;28;20041;-66
2021/10/11 08:12:48;;;;;;;17.80;2.38;;;11.80;99.90;;;;;;5019773;28;20041;-66
2021/10/11 08:15:14;;;;;;;14.85;2.40;;;11.80;99.90;;;;;;5019761;28;20033;-66
2021/10/11 08:17:39;;;;;;;11.43;1.63;;;11.90;99.90;;;;;;5019790;28;20129;-66
2021/10/11 08:20:07;;;;;;;10.35;2.05;;;11.90;99.90;;;;;;5021034;28;20045;-66
2021/10/11 08:22:33;;;;;;;13.40;1.88;;;11.90;99.90;;;;;;5017750;28;20065;-66
2021/10/11 08:24:58;;;;;;;11.15;1.58;;;12.00;99.90;;;;;;5020530;28;20677;-66
2021/10/11 08:27:25;;;;;;;14.32;2.15;;;12.10;99.90;;;;;;5020756;28;20057;-66
2021/10/11 08:29:51;;;;;;;10.35;2.00;;;12.10;99.90;;;;;;5017579;28;20041;-67
2021/10/11 08:32:24;;;;;;;16.52;2.42;;;12.10;99.90;;;;;;5020473;28;21537;-66
2021/10/11 08:34:50;;;;;;;13.18;1.45;;;12.20;99.90;;;;;;5021349;28;20107;-66
2021/10/11 08:37:16;;;;;;;14.48;2.67;;;12.20;99.90;;;;;;5022238;28;20450;-66
2021/10/11 08:39:42;;;;;;;13.52;2.13;;;12.40;99.90;;;;;;5022682;28;20049;-66
2021/10/11 08:42:12;;;;;;;12.35;2.40;;;12.40;99.90;;;;;;5018972;28;20110;-65
2021/10/11 08:44:37;;;;;;;14.38;1.98;;;12.40;99.90;;;;;;5020237;28;20054;-67
2021/10/11 08:47:03;;;;;;;16.30;3.35;;;12.50;99.90;;;;;;5018509;28;20408;-66
2021/10/11 08:49:30;;;;;;;10.50;1.55;;;12.60;99.90;;;;;;5019426;28;20099;-66
2021/10/11 08:51:56;;;;;;;12.90;1.77;;;12.70;99.90;;;;;;5022590;28;20041;-67
2021/10/11 08:54:22;;;;;;;14.43;1.80;;;12.80;99.90;;;;;;5018834;28;20396;-66
2021/10/11 08:56:47;;;;;;;13.13;1.90;;;12.80;99.90;;;;;;5020599;28;20371;-66
2021/10/11 08:59:13;;;;;;;12.13;1.65;;;12.90;99.90;;;;;;5020162;28;20698;-66
2021/10/11 09:01:39;;;;;;;14.77;2.13;;;13.00;99.90;;;;;;5018725;28;20092;-67
2021/10/11 09:04:18;;;;;;;12.90;1.70;;;13.00;99.90;;;;;;5019364;28;20045;-67
2021/10/11 09:07:03;;;;;;;9.43;1.77;;;13.20;99.90;;;;;;5018260;28;20041;-67
2021/10/11 09:09:28;;;;;;;10.23;1.40;;;13.20;99.90;;;;;;5016564;28;20077;-66
2021/10/11 09:11:54;;;;;;;9.75;1.38;;;13.30;99.90;;;;;;5017836;28;20128;-66
2021/10/11 09:14:22;;;;;;;12.65;1.90;;;13.40;99.90;;;;;;5022359;28;20053;-66
2021/10/11 09:17:00;;;;;;;8.40;1.60;;;13.40;99.90;;;;;;5017036;28;20052;-66
2021/10/11 09:19:32;;;;;;;13.35;2.15;;;13.60;99.90;;;;;;5017337;28;20053;-66
2021/10/11 09:21:57;;;;;;;9.95;1.33;;;13.70;99.90;;;;;;5020450;28;20069;-66
2021/10/11 09:24:23;;;;;;;9.73;1.88;;;13.90;99.90;;;;;;5020185;28;20132;-66
2021/10/11 09:26:52;;;;;;;11.35;1.02;;;14.00;99.90;;;;;;5015989;28;20073;-66
2021/10/11 09:29:30;;;;;;;10.63;1.83;;;14.00;99.90;;;;;;5017199;28;20037;-66
2021/10/11 09:32:02;;;;;;;7.97;1.27;;;14.10;99.90;;;;;;5018707;28;20045;-66
2021/10/11 09:34:28;;;;;;;8.75;1.33;;;14.10;99.90;;;;;;5020159;28;20049;-66
2021/10/11 09:36:59;;;;;;;12.77;2.20;;;14.20;99.90;;;;;;5019518;28;20049;-66
2021/10/11 09:39:27;;;;;;;9.23;2.00;;;14.20;99.90;;;;;;5015514;28;20312;-67
2021/10/11 09:41:54;;;;;;;13.00;1.38;;;14.30;99.90;;;;;;5018854;28;20037;-66
2021/10/11 09:44:21;;;;;;;13.57;2.08;;;14.30;99.90;;;;;;5015935;28;20060;-66
2021/10/11 09:46:47;;;;;;;9.55;1.45;;;14.40;99.90;;;;;;5017520;28;20813;-67
2021/10/11 09:49:14;;;;;;;16.85;2.60;;;14.40;99.90;;;;;;5018293;28;20487;-67
2021/10/11 09:51:41;;;;;;;9.48;1.10;;;14.50;99.90;;;;;;5017295;28;20121;-67
2021/10/11 09:54:08;;;;;;;10.90;1.60;;;14.50;99.90;;;;;;5020867;28;20590;-67
2021/10/11 09:56:34;;;;;;;15.85;1.40;;;14.50;99.90;;;;;;5018222;28;20575;-67
2021/10/11 09:59:01;;;;;;;10.48;1.83;;;14.60;99.90;;;;;;5020480;28;20044;-67
2021/10/11 10:01:29;;;;;;;10.85;1.83;;;14.60;99.90;;;;;;5019249;28;20477;-67
2021/10/11 10:03:56;;;;;;;16.05;2.25;;;14.60;99.90;;;;;;5019430;28;20161;-67
2021/10/11 10:06:25;;;;;;;10.45;1.17;;;14.60;99.90;;;;;;5019840;28;20045;-67
2021/10/11 10:08:52;;;;;;;5.72;0.88;;;14.70;99.90;;;;;;5014690;28;20381;-67
2021/10/11 10:11:19;;;;;;;12.85;1.42;;;14.80;99.90;;;;;;5016981;28;20041;-66
2021/10/11 10:13:47;;;;;;;7.32;1.23;;;14.80;99.90;;;;;;5019283;28;20033;-66
2021/10/11 10:16:14;;;;;;;11.02;2.45;;;14.90;99.90;;;;;;5018343;28;20057;-67
2021/10/11 10:18:42;;;;;;;9.05;1.02;;;15.00;99.90;;;;;;5022808;28;20527;-67
2021/10/11 10:21:08;;;;;;;9.10;1.30;;;15.10;99.90;;;;;;5019463;28;20419;-66
2021/10/11 10:23:39;;;;;;;8.88;0.98;;;15.20;99.90;;;;;;5021977;28;20041;-66
2021/10/11 10:26:07;;;;;;;9.70;2.10;;;15.30;99.90;;;;;;5021096;28;20053;-66
2021/10/11 10:28:50;;;;;;;8.82;1.70;;;15.50;99.90;;;;;;5024550;28;20467;-66
2021/10/11 10:31:37;;;;;;;9.10;1.00;;;15.70;99.90;;;;;;5025215;28;20049;-66
2021/10/11 10:34:17;;;;;;;14.82;2.67;;;15.80;99.90;;;;;;5022875;28;20049;-66
2021/10/11 10:36:45;;;;;;;7.18;1.00;;;15.90;99.90;;;;;;5023592;28;20491;-67
2021/10/11 10:39:12;;;;;;;5.90;1.15;;;16.00;99.90;;;;;;5026646;28;20034;-66
2021/10/11 10:41:43;;;;;;;4.93;0.88;;;16.00;99.90;;;;;;5033050;28;20511;-66
2021/10/11 10:44:28;;;;;;;12.60;0.90;;;15.90;99.90;;;;;;5023448;28;20042;-66
2021/10/11 10:46:59;;;;;;;10.13;0.65;;;15.70;99.90;;;;;;5024506;28;20166;-67
2021/10/11 10:49:34;;;;;;;7.32;0.95;;;15.40;99.90;;;;;;5019389;28;20046;-67
2021/10/11 10:52:02;;;;;;;5.82;1.40;;;15.10;99.90;;;;;;5018725;28;20067;-67
2021/10/11 10:54:42;;;;;;;7.85;0.68;;;14.90;99.90;;;;;;5018669;28;20044;-67
2021/10/11 10:57:10;;;;;;;4.28;0.88;;;14.70;99.90;;;;;;5017804;28;20081;-67
2021/10/11 10:59:36;;;;;;;8.82;2.05;;;14.60;99.90;;;;;;5015997;28;20135;-67
2021/10/11 11:02:11;;;;;;;7.18;1.20;;;14.60;99.90;;;;;;5017970;28;20157;-66
2021/10/11 11:04:38;;;;;;;10.25;1.08;;;14.60;99.90;;;;;;5018869;28;20048;-66
2021/10/11 11:07:07;;;;;;;7.82;0.80;;;14.50;99.90;;;;;;4999400;28;20401;-67
2021/10/11 11:09:44;;;;;;;12.35;0.88;;;14.60;99.90;;;;;;5019909;28;20116;-66
2021/10/11 11:12:14;;;;;;;7.32;1.30;;;14.60;99.90;;;;;;5009210;28;20037;-66
2021/10/11 11:14:44;;;;;;;10.65;1.17;;;14.60;99.90;;;;;;5024608;28;20037;-66
2021/10/11 11:17:14;;;;;;;6.10;1.00;;;14.60;99.90;;;;;;5022161;28;20119;-66
2021/10/11 11:19:43;;;;;;;6.45;0.60;;;14.60;99.90;;;;;;5022942;28;20046;-66
2021/10/11 11:22:16;;;;;;;6.47;0.80;;;14.70;99.90;;;;;;5023270;28;20388;-66
2021/10/11 11:24:50;;;;;;;8.75;1.15;;;14.80;99.90;;;;;;5022539;28;20589;-66
2021/10/11 11:27:27;;;;;;;7.93;1.02;;;14.80;99.90;;;;;;5021112;28;20065;-66
2021/10/11 11:29:57;;;;;;;11.07;1.30;;;14.90;99.90;;;;;;5022457;28;20029;-67
2021/10/11 11:32:23;;;;;;;7.13;1.40;;;14.90;99.90;;;;;;5024637;28;20045;-66
2021/10/11 11:34:49;;;;;;;11.85;1.30;;;15.00;99.90;;;;;;5027473;28;20071;-66
2021/10/11 11:37:15;;;;;;;5.95;0.88;;;15.20;99.90;;;;;;5022883;28;20120;-67
2021/10/11 11:39:40;;;;;;;6.35;0.90;;;15.40;99.90;;;;;;5021891;28;20468;-67
2021/10/11 11:42:07;;;;;;;8.15;1.67;;;15.60;99.90;;;;;;5019826;28;20045;-67
2021/10/11 11:44:33;;;;;;;9.80;1.13;;;15.80;99.90;;;;;;5021916;28;20045;-67
2021/10/11 11:47:07;;;;;;;6.68;1.00;;;15.90;99.90;;;;;;5022833;28;20546;-67
2021/10/11 11:49:37;;;;;;;8.38;1.70;;;16.10;99.90;;;;;;5024886;28;20052;-66
2021/10/11 11:52:08;;;;;;;5.75;1.00;;;16.10;99.90;;;;;;5018954;28;20103;-66
2021/10/11 11:54:35;;;;;;;12.70;1.40;;;16.10;99.90;;;;;;5023470;28;20053;-66
2021/10/11 11:57:01;;;;;;;7.43;1.20;;;15.90;99.90;;;;;;5020300;28;20549;-67
2021/10/11 11:59:28;;;;;;;8.60;1.05;;;15.50;99.90;;;;;;5020442;28;20049;-67
2021/10/11 12:01:54;;;;;;;7.07;1.10;;;15.20;99.90;;;;;;5020793;28;20447;-67
2021/10/11 12:04:20;;;;;;;7.75;1.10;;;15.00;99.90;;;;;;5022055;28;20132;-67
2021/10/11 12:06:46;;;;;;;5.47;1.13;;;14.70;99.90;;;;;;5020314;28;20042;-67
2021/10/11 12:09:12;;;;;;;8.02;1.20;;;14.60;99.90;;;;;;5021419;28;20507;-66
2021/10/11 12:11:39;;;;;;;9.18;1.30;;;14.50;99.90;;;;;;5022318;28;20160;-67
2021/10/11 12:14:05;;;;;;;7.85;0.93;;;14.40;99.90;;;;;;5022647;28;20045;-67
2021/10/11 12:16:32;;;;;;;5.57;0.60;;;14.40;99.90;;;;;;5039412;28;20049;-67
2021/10/11 12:19:00;;;;;;;5.13;1.05;;;14.40;99.90;;;;;;5020746;28;20044;-67
2021/10/11 12:21:36;;;;;;;5.15;0.93;;;14.40;99.90;;;;;;5040616;28;20057;-66
2021/10/11 12:24:20;;;;;;;4.57;0.77;;;14.50;99.90;;;;;;5022190;28;20041;-66
2021/10/11 12:26:57;;;;;;;8.55;0.80;;;14.60;99.90;;;;;;5021117;28;20506;-66
2021/10/11 12:29:26;;;;;;;6.93;0.60;;;14.60;99.90;;;;;;5020236;28;20084;-67
2021/10/11 12:32:09;;;;;;;8.10;0.90;;;14.60;99.90;;;;;;5020702;28;20079;-67
2021/10/11 12:34:45;;;;;;;7.07;0.80;;;14.60;99.90;;;;;;5022188;28;20041;-67
2021/10/11 12:37:13;;;;;;;7.75;0.88;;;14.60;99.90;;;;;;5020334;28;20030;-67
2021/10/11 12:39:44;;;;;;;7.43;0.98;;;14.50;99.90;;;;;;5018104;28;20124;-67